createdAt,value
2023-04-15T00:01:55.002Z,5.45
2023-04-15T00:04:24.513Z,4.97
2023-04-15T00:06:53.704Z,7.43
2023-04-15T00:09:21.883Z,4.35
2023-04-15T00:11:50.307Z,3.80
2023-04-15T00:14:18.179Z,4.32
2023-04-15T00:16:46.235Z,4.28
2023-04-15T00:19:14.105Z,3.92
2023-04-15T00:21:43.312Z,5.40
2023-04-15T00:24:11.652Z,4.47
2023-04-15T00:26:39.597Z,4.95
2023-04-15T00:29:08.230Z,5.35
2023-04-15T00:31:37.605Z,4.28
2023-04-15T00:34:05.725Z,5.43
2023-04-15T00:36:35.099Z,4.90
2023-04-15T00:39:05.273Z,3.75
2023-04-15T00:41:34.047Z,3.47
2023-04-15T00:44:03.358Z,3.58
2023-04-15T00:46:31.476Z,4.50
2023-04-15T00:48:59.586Z,4.95
2023-04-15T00:51:27.645Z,4.35
2023-04-15T00:53:56.000Z,4.55
2023-04-15T00:56:25.338Z,5.22
2023-04-15T00:58:53.267Z,4.65
2023-04-15T01:01:21.705Z,4.47
2023-04-15T01:03:51.236Z,5.28
2023-04-15T01:06:19.446Z,5.13
2023-04-15T01:08:47.361Z,5.82
2023-04-15T01:11:15.462Z,4.30
2023-04-15T01:13:44.834Z,3.90
2023-04-15T01:16:13.061Z,6.20
2023-04-15T01:18:41.126Z,4.70
2023-04-15T01:21:08.980Z,4.85
2023-04-15T01:23:38.524Z,4.43
2023-04-15T01:26:08.969Z,4.57
2023-04-15T01:28:37.332Z,4.25
2023-04-15T01:31:10.028Z,3.80
2023-04-15T01:33:39.005Z,3.47
2023-04-15T01:36:09.965Z,3.88
2023-04-15T01:38:37.945Z,4.05
2023-04-15T01:41:07.571Z,3.60
2023-04-15T01:43:37.369Z,3.35
2023-04-15T01:46:05.446Z,6.88
2023-04-15T01:48:33.441Z,3.47
2023-04-15T01:51:01.400Z,4.03
2023-04-15T01:53:29.421Z,3.67
2023-04-15T01:55:57.321Z,3.95
2023-04-15T01:58:25.216Z,3.53
2023-04-15T02:00:54.536Z,3.38
2023-04-15T02:03:23.235Z,3.25
2023-04-15T02:05:53.259Z,4.82
2023-04-15T02:08:21.922Z,4.38
2023-04-15T02:10:49.774Z,3.50
2023-04-15T02:13:17.907Z,4.70
2023-04-15T02:15:48.729Z,4.40
2023-04-15T02:18:18.174Z,3.70
2023-04-15T02:20:47.041Z,4.20
2023-04-15T02:23:15.716Z,3.47
2023-04-15T02:25:53.579Z,3.90
2023-04-15T02:28:22.200Z,6.28
2023-04-15T02:30:50.934Z,3.80
2023-04-15T02:33:20.291Z,5.72
2023-04-15T02:35:48.184Z,3.65
2023-04-15T02:38:17.857Z,3.50
2023-04-15T02:40:46.163Z,4.07
2023-04-15T02:43:14.188Z,4.55
2023-04-15T02:45:43.498Z,5.10
2023-04-15T02:48:11.673Z,5.47
2023-04-15T02:50:41.078Z,3.20
2023-04-15T02:53:11.245Z,3.63
2023-04-15T02:55:39.158Z,4.65
2023-04-15T02:58:07.031Z,4.85
2023-04-15T03:00:35.020Z,3.10
2023-04-15T03:03:04.223Z,7.07
2023-04-15T03:05:32.546Z,3.20
2023-04-15T03:08:03.159Z,3.65
2023-04-15T03:10:31.612Z,4.63
2023-04-15T03:12:59.502Z,4.50
2023-04-15T03:15:27.895Z,4.78
2023-04-15T03:17:56.464Z,4.00
2023-04-15T03:20:24.822Z,3.53
2023-04-15T03:22:52.873Z,3.97
2023-04-15T03:25:24.253Z,4.50
2023-04-15T03:27:52.108Z,5.95
2023-04-15T03:30:20.005Z,4.85
2023-04-15T03:32:47.954Z,3.55
2023-04-15T03:35:16.404Z,4.00
2023-04-15T03:37:44.362Z,4.32
2023-04-15T03:40:13.052Z,4.72
2023-04-15T03:42:42.318Z,4.65
2023-04-15T03:45:10.953Z,3.83
2023-04-15T03:47:38.896Z,3.47
2023-04-15T03:50:08.339Z,4.00
2023-04-15T03:52:36.406Z,3.75
2023-04-15T03:55:04.424Z,3.72
2023-04-15T03:57:32.420Z,3.92
2023-04-15T04:00:01.764Z,3.30
2023-04-15T04:02:39.937Z,3.88
2023-04-15T04:05:08.403Z,3.55
2023-04-15T04:07:36.545Z,4.75
2023-04-15T04:10:04.760Z,4.30
2023-04-15T04:12:32.645Z,4.35
2023-04-15T04:15:01.910Z,4.07
2023-04-15T04:17:29.901Z,8.30
2023-04-15T04:19:57.812Z,5.43
2023-04-15T04:22:25.766Z,4.90
2023-04-15T04:24:53.676Z,3.83
2023-04-15T04:27:21.681Z,4.38
2023-04-15T04:29:49.931Z,4.85
2023-04-15T04:32:19.228Z,3.97
2023-04-15T04:34:47.207Z,3.60
2023-04-15T04:37:15.217Z,4.82
2023-04-15T04:39:43.067Z,3.83
2023-04-15T04:42:11.091Z,4.38
2023-04-15T04:44:39.075Z,5.15
2023-04-15T04:47:07.551Z,3.60
2023-04-15T04:49:36.807Z,3.50
2023-04-15T04:52:04.766Z,3.35
2023-04-15T04:54:32.830Z,3.67
2023-04-15T04:57:00.767Z,4.13
2023-04-15T04:59:28.652Z,4.25
2023-04-15T05:01:56.630Z,4.68
2023-04-15T05:04:24.596Z,8.57
2023-04-15T05:06:53.820Z,3.60
2023-04-15T05:09:21.717Z,3.70
2023-04-15T05:11:49.575Z,3.50
2023-04-15T05:14:17.514Z,3.58
2023-04-15T05:16:45.390Z,4.40
2023-04-15T05:19:13.266Z,3.30
2023-04-15T05:21:41.148Z,3.92
2023-04-15T05:24:10.386Z,3.85
2023-04-15T05:26:38.323Z,3.72
2023-04-15T05:29:06.325Z,4.35
2023-04-15T05:31:34.297Z,3.42
2023-04-15T05:34:02.489Z,4.22
2023-04-15T05:36:31.445Z,4.57
2023-04-15T05:38:59.702Z,3.70
2023-04-15T05:41:29.125Z,3.83
2023-04-15T05:43:57.206Z,3.72
2023-04-15T05:46:25.239Z,3.40
2023-04-15T05:48:54.675Z,3.97
2023-04-15T05:51:23.252Z,4.03
2023-04-15T05:53:51.252Z,4.22
2023-04-15T05:56:20.326Z,5.18
2023-04-15T05:58:50.554Z,3.45
2023-04-15T06:01:19.311Z,5.75
2023-04-15T06:03:47.350Z,7.05
2023-04-15T06:06:15.446Z,3.80
2023-04-15T06:08:43.333Z,3.60
2023-04-15T06:11:11.278Z,3.67
2023-04-15T06:13:39.226Z,3.45
2023-04-15T06:16:09.215Z,3.50
2023-04-15T06:18:37.134Z,4.50
2023-04-15T06:21:05.717Z,3.65
2023-04-15T06:23:35.768Z,3.97
2023-04-15T06:26:03.740Z,3.80
2023-04-15T06:28:31.623Z,3.67
2023-04-15T06:30:59.534Z,5.35
2023-04-15T06:33:28.961Z,3.70
2023-04-15T06:35:56.980Z,3.78
2023-04-15T06:38:24.936Z,3.97
2023-04-15T06:40:52.853Z,3.53
2023-04-15T06:43:20.861Z,4.10
2023-04-15T06:45:49.483Z,3.75
2023-04-15T06:48:17.782Z,3.33
2023-04-15T06:50:47.471Z,4.57
2023-04-15T06:53:15.935Z,3.88
2023-04-15T06:55:44.246Z,3.65
2023-04-15T06:58:12.420Z,3.58
2023-04-15T07:00:45.170Z,3.75
2023-04-15T07:03:13.967Z,3.90
2023-04-15T07:05:42.374Z,3.25
2023-04-15T07:08:12.369Z,3.78
2023-04-15T07:10:40.973Z,3.50
2023-04-15T07:13:09.033Z,3.45
2023-04-15T07:15:37.205Z,3.47
2023-04-15T07:18:05.251Z,3.10
2023-04-15T07:20:33.576Z,3.70
2023-04-15T07:23:01.800Z,3.78
2023-04-15T07:25:31.385Z,3.80
2023-04-15T07:27:59.689Z,4.20
2023-04-15T07:30:27.872Z,4.53
2023-04-15T07:32:56.187Z,5.32
2023-04-15T07:35:25.623Z,3.67
2023-04-15T07:37:53.567Z,5.88
2023-04-15T07:40:22.389Z,3.00
2023-04-15T07:42:52.531Z,3.53
2023-04-15T07:45:21.115Z,4.75
2023-04-15T07:47:49.106Z,3.35
2023-04-15T07:50:17.466Z,4.70
2023-04-15T07:52:45.733Z,3.00
2023-04-15T07:55:14.620Z,4.40
2023-04-15T07:57:42.530Z,3.25
2023-04-15T08:00:13.024Z,3.30
2023-04-15T08:02:41.645Z,4.28
2023-04-15T08:05:10.741Z,3.90
2023-04-15T08:07:38.876Z,3.20
2023-04-15T08:10:08.684Z,6.78
2023-04-15T08:12:40.068Z,9.82
2023-04-15T08:15:09.576Z,3.45
2023-04-15T08:17:39.376Z,7.18
2023-04-15T08:20:08.607Z,8.82
2023-04-15T08:22:38.082Z,5.28
2023-04-15T08:25:06.927Z,6.47
2023-04-15T08:27:35.475Z,4.45
2023-04-15T08:30:05.331Z,4.82
2023-04-15T08:32:34.324Z,6.43
2023-04-15T08:35:07.955Z,4.97
2023-04-15T08:37:39.798Z,5.65
2023-04-15T08:40:09.936Z,7.40
2023-04-15T08:42:39.434Z,6.68
2023-04-15T08:45:11.423Z,7.25
2023-04-15T08:47:40.458Z,6.30
2023-04-15T08:50:14.527Z,6.47
2023-04-15T08:52:43.147Z,5.72
2023-04-15T08:55:11.838Z,9.27
2023-04-15T08:57:42.227Z,5.95
2023-04-15T09:00:12.473Z,5.03
2023-04-15T09:02:41.474Z,8.63
2023-04-15T09:05:12.422Z,7.85
2023-04-15T09:07:40.812Z,8.45
2023-04-15T09:10:10.978Z,7.60
2023-04-15T09:12:40.406Z,8.18
2023-04-15T09:15:10.312Z,6.95
2023-04-15T09:17:43.750Z,7.50
2023-04-15T09:20:21.148Z,6.93
2023-04-15T09:22:50.031Z,8.13
2023-04-15T09:25:34.318Z,7.68
2023-04-15T09:28:03.493Z,6.28
2023-04-15T09:30:37.256Z,8.95
2023-04-15T09:33:16.762Z,5.97
2023-04-15T09:36:01.109Z,6.15
2023-04-15T09:38:34.512Z,5.63
2023-04-15T09:41:03.185Z,7.15
2023-04-15T09:43:44.085Z,7.13
2023-04-15T09:46:13.274Z,5.80
2023-04-15T09:48:43.092Z,7.00
2023-04-15T09:51:14.426Z,5.97
2023-04-15T09:53:46.048Z,5.63
2023-04-15T09:56:15.482Z,6.22
2023-04-15T09:58:44.601Z,6.88
2023-04-15T10:01:13.106Z,7.32
2023-04-15T10:03:48.438Z,6.28
2023-04-15T10:06:19.189Z,5.60
2023-04-15T10:08:48.082Z,6.40
2023-04-15T10:11:20.859Z,5.65
2023-04-15T10:13:54.582Z,10.05
2023-04-15T10:16:23.702Z,5.43
2023-04-15T10:18:56.203Z,7.43
2023-04-15T10:21:28.730Z,9.30
2023-04-15T10:23:57.379Z,15.82
2023-04-15T10:26:28.245Z,9.27
2023-04-15T10:29:00.181Z,23.73
2023-04-15T10:31:29.976Z,10.90
2023-04-15T10:33:59.634Z,14.48
2023-04-15T10:36:36.516Z,13.32
2023-04-15T10:39:40.708Z,13.77
2023-04-15T10:42:09.279Z,13.85
2023-04-15T10:44:38.613Z,11.15
2023-04-15T10:47:12.173Z,14.02
2023-04-15T10:49:47.608Z,9.98
2023-04-15T10:52:17.758Z,8.95
2023-04-15T10:54:45.767Z,11.65
2023-04-15T10:57:17.912Z,8.50
2023-04-15T11:00:04.356Z,12.48
2023-04-15T11:02:43.571Z,12.02
2023-04-15T11:05:11.940Z,10.63
2023-04-15T11:07:43.476Z,10.23
2023-04-15T11:10:54.879Z,9.23
2023-04-15T11:13:28.275Z,9.43
2023-04-15T11:15:58.314Z,7.72
2023-04-15T11:18:28.146Z,10.25
2023-04-15T11:20:57.320Z,9.73
2023-04-15T11:23:34.335Z,12.80
2023-04-15T11:26:02.690Z,9.65
2023-04-15T11:28:31.467Z,9.75
2023-04-15T11:30:59.781Z,11.90
2023-04-15T11:33:27.686Z,42.83
2023-04-15T11:35:55.971Z,58.47
2023-04-15T11:38:23.867Z,37.72
2023-04-15T11:40:53.299Z,58.10
2023-04-15T11:43:22.391Z,81.35
2023-04-15T11:45:54.276Z,59.17
2023-04-15T11:48:23.735Z,60.13
2023-04-15T11:50:55.697Z,67.38
2023-04-15T11:53:23.798Z,62.67
2023-04-15T11:55:54.294Z,57.80
2023-04-15T11:58:23.423Z,65.72
2023-04-15T12:00:52.493Z,74.93
2023-04-15T12:03:24.193Z,62.60
2023-04-15T12:09:02.025Z,53.53
2023-04-15T12:11:49.207Z,66.20
2023-04-15T12:14:23.274Z,63.80
2023-04-15T12:16:52.637Z,62.03
2023-04-15T12:19:24.248Z,52.95
2023-04-15T12:21:52.290Z,56.33
2023-04-15T12:24:22.260Z,45.72
2023-04-15T12:26:52.236Z,49.22
2023-04-15T12:29:20.341Z,49.50
2023-04-15T12:31:52.407Z,43.25
2023-04-15T12:34:21.012Z,43.65
2023-04-15T12:36:48.967Z,33.83
2023-04-15T12:39:16.852Z,49.47
2023-04-15T12:41:44.755Z,47.13
2023-04-15T12:44:14.082Z,34.13
2023-04-15T12:46:42.213Z,40.30
2023-04-15T12:49:10.448Z,45.35
2023-04-15T12:51:38.406Z,40.15
2023-04-15T12:54:07.957Z,36.38
2023-04-15T12:56:35.886Z,37.25
2023-04-15T12:59:04.119Z,42.25
2023-04-15T13:01:33.407Z,34.00
2023-04-15T13:04:01.343Z,37.47
2023-04-15T13:06:29.628Z,40.35
2023-04-15T13:08:58.765Z,41.20
2023-04-15T13:11:27.226Z,31.52
2023-04-15T13:13:55.994Z,34.72
2023-04-15T13:16:24.715Z,28.23
2023-04-15T13:18:54.099Z,31.20
2023-04-15T13:21:22.205Z,35.20
2023-04-15T13:23:50.491Z,33.17
2023-04-15T13:26:19.052Z,31.38
2023-04-15T13:28:47.224Z,22.10
2023-04-15T13:31:15.924Z,29.10
2023-04-15T13:33:44.122Z,25.10
2023-04-15T13:36:13.769Z,26.60
2023-04-15T13:38:41.770Z,26.17
2023-04-15T13:41:09.932Z,23.40
2023-04-15T13:43:37.940Z,24.55
2023-04-15T13:46:06.217Z,23.08
2023-04-15T13:48:34.256Z,24.52
2023-04-15T13:51:02.210Z,25.35
2023-04-15T13:53:38.853Z,23.45
2023-04-15T13:56:07.943Z,25.02
2023-04-15T13:58:35.849Z,22.73
2023-04-15T14:01:05.672Z,19.48
2023-04-15T14:03:34.542Z,22.98
2023-04-15T14:06:02.686Z,18.90
2023-04-15T14:08:32.081Z,23.10
2023-04-15T14:11:00.010Z,18.98
2023-04-15T14:13:27.941Z,21.73
2023-04-15T14:15:55.869Z,14.82
2023-04-15T14:18:23.791Z,17.63
2023-04-15T14:20:51.703Z,19.38
2023-04-15T14:23:19.608Z,17.75
2023-04-15T14:25:48.932Z,21.35
2023-04-15T14:28:16.827Z,16.80
2023-04-15T14:30:44.823Z,17.35
2023-04-15T14:33:13.117Z,16.30
2023-04-15T14:35:40.980Z,17.25
2023-04-15T14:38:11.121Z,19.08
2023-04-15T14:40:39.477Z,16.45
2023-04-15T14:43:08.704Z,17.70
2023-04-15T14:45:36.671Z,15.20
2023-04-15T14:48:06.403Z,19.75
2023-04-15T14:50:34.471Z,12.77
2023-04-15T14:53:02.498Z,13.70
2023-04-15T14:55:30.563Z,13.02
2023-04-15T14:57:58.500Z,14.52
2023-04-15T15:00:27.747Z,17.75
2023-04-15T15:02:55.689Z,18.75
2023-04-15T15:05:23.757Z,13.73
2023-04-15T15:07:51.803Z,14.18
2023-04-15T15:10:34.999Z,15.73
2023-04-15T15:13:08.949Z,15.52
2023-04-15T15:15:38.661Z,15.73
2023-04-15T15:18:06.678Z,13.52
2023-04-15T15:20:35.437Z,13.43
2023-04-15T15:23:03.402Z,11.73
2023-04-15T15:25:31.286Z,13.75
2023-04-15T15:27:59.324Z,11.13
2023-04-15T15:30:27.257Z,12.82
2023-04-15T15:32:56.568Z,10.90
2023-04-15T15:35:25.848Z,14.18
2023-04-15T15:37:54.930Z,12.30
2023-04-15T15:40:22.864Z,11.93
2023-04-15T15:42:51.065Z,8.20
2023-04-15T15:45:19.078Z,11.73
2023-04-15T15:47:47.076Z,12.50
2023-04-15T15:50:16.358Z,11.65
2023-04-15T15:52:44.317Z,13.63
2023-04-15T15:55:12.235Z,13.75
2023-04-15T15:57:40.315Z,10.10
2023-04-15T16:00:12.099Z,18.45
2023-04-15T16:05:11.984Z,8.38
2023-04-15T16:07:41.211Z,9.88
2023-04-15T16:10:10.245Z,11.45
2023-04-15T16:12:38.152Z,11.73
2023-04-15T16:15:07.058Z,12.60
2023-04-15T16:17:35.060Z,13.48
2023-04-15T16:20:05.829Z,7.70
2023-04-15T16:22:34.235Z,9.75
2023-04-15T16:25:03.646Z,9.52
2023-04-15T16:27:31.634Z,10.50
2023-04-15T16:29:59.557Z,8.88
2023-04-15T16:32:27.556Z,12.60
2023-04-15T16:34:55.499Z,12.02
2023-04-15T16:37:23.462Z,10.30
2023-04-15T16:39:51.357Z,15.25
2023-04-15T16:42:20.668Z,10.45
2023-04-15T16:44:48.566Z,8.20
2023-04-15T16:47:16.493Z,8.18
2023-04-15T16:49:44.403Z,9.38
2023-04-15T16:52:12.309Z,13.18
2023-04-15T16:54:41.397Z,50.25
2023-04-15T16:57:09.441Z,47.92
2023-04-15T16:59:38.956Z,52.75
2023-04-15T17:02:06.874Z,69.55
2023-04-15T17:04:35.057Z,62.58
2023-04-15T17:07:03.901Z,60.92
2023-04-15T17:09:31.847Z,61.58
2023-04-15T17:11:59.764Z,69.05
2023-04-15T17:14:28.777Z,70.88
2023-04-15T17:16:58.057Z,66.63
2023-04-15T17:19:26.776Z,59.03
2023-04-15T17:21:55.177Z,82.22
2023-04-15T17:24:23.715Z,61.03
2023-04-15T17:26:51.606Z,57.63
2023-04-15T17:29:19.483Z,68.15
2023-04-15T17:31:47.406Z,56.90
2023-04-15T17:34:16.905Z,44.63
2023-04-15T17:36:44.912Z,43.33
2023-04-15T17:39:14.063Z,40.35
2023-04-15T17:41:41.965Z,39.15
2023-04-15T17:44:09.907Z,33.53
2023-04-15T17:46:37.904Z,39.92
2023-04-15T17:49:06.662Z,27.77
2023-04-15T17:51:36.151Z,32.72
2023-04-15T17:54:09.693Z,29.35
2023-04-15T17:56:37.680Z,26.02
2023-04-15T17:59:06.336Z,26.00
2023-04-15T18:01:34.346Z,26.55
2023-04-15T18:04:02.542Z,23.48
2023-04-15T18:06:30.955Z,26.42
2023-04-15T18:09:00.295Z,32.42
2023-04-15T18:11:28.218Z,23.42
2023-04-15T18:13:56.121Z,25.55
2023-04-15T18:16:24.069Z,25.95
2023-04-15T18:18:52.273Z,20.00
2023-04-15T18:21:20.264Z,23.85
2023-04-15T18:23:48.438Z,23.50
2023-04-15T18:26:17.931Z,27.17
2023-04-15T18:28:46.383Z,18.30
2023-04-15T18:31:15.022Z,17.52
2023-04-15T18:33:43.866Z,18.02
2023-04-15T18:36:12.144Z,20.77
2023-04-15T18:38:40.347Z,17.48
2023-04-15T18:41:10.066Z,18.98
2023-04-15T18:43:39.670Z,26.85
2023-04-15T18:46:11.753Z,24.92
2023-04-15T18:48:40.117Z,16.45
2023-04-15T18:51:08.294Z,19.42
2023-04-15T18:53:36.476Z,18.70
2023-04-15T18:56:04.604Z,19.25
2023-04-15T18:59:09.544Z,16.25
2023-04-15T19:01:22.184Z,18.00
2023-04-15T19:03:50.220Z,15.50
2023-04-15T19:06:18.260Z,14.32
2023-04-15T19:08:46.168Z,15.25
2023-04-15T19:11:14.042Z,15.90
2023-04-15T19:13:41.955Z,14.30
2023-04-15T19:16:09.851Z,19.20
2023-04-15T19:18:39.090Z,13.88
2023-04-15T19:21:06.996Z,17.83
2023-04-15T19:23:34.877Z,12.02
2023-04-15T19:26:02.795Z,14.93
2023-04-15T19:28:31.187Z,14.48
2023-04-15T19:30:59.211Z,16.95
2023-04-15T19:33:31.107Z,13.32
2023-04-15T19:36:01.714Z,13.18
2023-04-15T19:38:30.524Z,13.63
2023-04-15T19:40:58.405Z,14.90
2023-04-15T19:43:26.355Z,12.80
2023-04-15T19:45:54.643Z,15.95
2023-04-15T19:48:23.523Z,12.10
2023-04-15T19:50:51.719Z,11.48
2023-04-15T19:53:20.997Z,12.88
2023-04-15T19:55:49.422Z,14.70
2023-04-15T19:58:17.365Z,13.15
2023-04-15T20:00:45.374Z,14.80
2023-04-15T20:03:13.435Z,12.95
2023-04-15T20:05:41.422Z,13.32
2023-04-15T20:08:09.308Z,14.27
2023-04-15T20:10:38.853Z,10.55
2023-04-15T20:13:06.728Z,10.85
2023-04-15T20:15:34.712Z,12.73
2023-04-15T20:18:02.652Z,13.93
2023-04-15T20:20:30.530Z,10.45
2023-04-15T20:22:58.523Z,10.25
2023-04-15T20:25:26.628Z,14.93
2023-04-15T20:27:56.777Z,12.25
2023-04-15T20:30:24.635Z,11.85
2023-04-15T20:32:52.589Z,9.52
2023-04-15T20:35:20.777Z,11.25
2023-04-15T20:37:49.872Z,10.57
2023-04-15T20:40:17.867Z,8.27
2023-04-15T20:42:46.023Z,12.27
2023-04-15T20:45:15.320Z,10.02
2023-04-15T20:47:43.232Z,12.27
2023-04-15T20:50:12.300Z,10.18
2023-04-15T20:52:40.245Z,11.65
2023-04-15T20:55:09.263Z,13.10
2023-04-15T20:57:37.138Z,12.27
2023-04-15T21:00:06.202Z,13.52
2023-04-15T21:02:35.646Z,15.60
2023-04-15T21:05:03.621Z,11.70
2023-04-15T21:07:31.499Z,16.15
2023-04-15T21:09:59.429Z,16.60
2023-04-15T21:12:27.297Z,21.38
2023-04-15T21:14:55.432Z,16.70
2023-04-15T21:17:23.407Z,26.83
2023-04-15T21:19:52.647Z,15.68
2023-04-15T21:22:20.537Z,17.00
2023-04-15T21:24:48.449Z,17.92
2023-04-15T21:27:16.753Z,17.70
2023-04-15T21:29:44.706Z,16.17
2023-04-15T21:32:12.992Z,18.10
2023-04-15T21:34:40.979Z,19.50
2023-04-15T21:37:10.316Z,16.58
2023-04-15T21:39:38.209Z,15.50
2023-04-15T21:42:06.155Z,16.73
2023-04-15T21:44:34.114Z,14.68
2023-04-15T21:47:02.342Z,14.30
2023-04-15T21:49:30.691Z,16.77
2023-04-15T21:52:01.229Z,16.95
2023-04-15T21:54:31.148Z,12.18
2023-04-15T21:56:59.144Z,12.02
2023-04-15T21:59:27.296Z,16.95
2023-04-15T22:01:55.346Z,8.45
2023-04-15T22:04:23.375Z,13.00
2023-04-15T22:06:52.259Z,10.98
2023-04-15T22:09:20.118Z,10.73
2023-04-15T22:11:50.080Z,12.52
2023-04-15T22:14:17.965Z,10.98
2023-04-15T22:16:46.114Z,12.43
2023-04-15T22:19:14.046Z,15.25
2023-04-15T22:21:42.998Z,11.80
2023-04-15T22:24:32.196Z,9.95
2023-04-15T22:27:00.606Z,11.50
2023-04-15T22:29:28.456Z,16.13
2023-04-15T22:31:56.426Z,11.75
2023-04-15T22:34:24.305Z,12.38
2023-04-15T22:36:52.487Z,11.75
2023-04-15T22:39:20.460Z,10.13
2023-04-15T22:41:48.367Z,11.55
2023-04-15T22:44:17.655Z,13.32
2023-04-15T22:46:45.581Z,13.88
2023-04-15T22:49:13.437Z,9.90
2023-04-15T22:51:41.321Z,6.78
2023-04-15T22:54:09.205Z,8.52
2023-04-15T22:56:37.084Z,10.07
2023-04-15T22:59:04.936Z,8.50
2023-04-15T23:01:34.194Z,9.20
2023-04-15T23:04:08.285Z,10.32
2023-04-15T23:06:38.988Z,9.15
2023-04-15T23:09:06.903Z,6.40
2023-04-15T23:11:34.777Z,13.85
2023-04-15T23:14:02.959Z,7.07
2023-04-15T23:16:30.841Z,8.68
2023-04-15T23:19:00.169Z,8.75
2023-04-15T23:21:28.418Z,9.75
2023-04-15T23:23:56.284Z,9.82
2023-04-15T23:26:24.428Z,7.22
2023-04-15T23:28:52.302Z,8.45
2023-04-15T23:31:20.281Z,8.65
2023-04-15T23:33:48.201Z,10.93
2023-04-15T23:36:17.491Z,7.97
2023-04-15T23:38:45.461Z,9.88
2023-04-15T23:41:13.416Z,7.78
2023-04-15T23:43:41.284Z,8.43
2023-04-15T23:46:09.365Z,10.50
2023-04-15T23:48:37.209Z,8.02
2023-04-15T23:51:05.549Z,6.13
2023-04-15T23:53:34.812Z,5.78
2023-04-15T23:56:02.782Z,9.00
2023-04-15T23:58:31.865Z,7.05
